createdAt,value
2018-02-14T00:00:13.012Z,0.00
2018-02-14T00:01:13.000Z,0.00
2018-02-14T00:02:12.986Z,0.00
2018-02-14T00:03:12.952Z,0.00
2018-02-14T00:04:12.934Z,0.00
2018-02-14T00:05:12.913Z,0.00
2018-02-14T00:06:12.895Z,0.00
2018-02-14T00:07:12.882Z,0.00
2018-02-14T00:08:12.855Z,0.00
2018-02-14T00:09:12.837Z,0.00
2018-02-14T00:10:12.817Z,0.00
2018-02-14T00:11:12.796Z,0.00
2018-02-14T00:12:12.780Z,0.00
2018-02-14T00:13:12.758Z,0.00
2018-02-14T00:14:12.756Z,0.00
2018-02-14T00:15:12.720Z,0.00
2018-02-14T00:16:12.737Z,0.00
2018-02-14T00:17:12.686Z,0.00
2018-02-14T00:18:12.660Z,0.00
2018-02-14T00:19:12.657Z,0.00
2018-02-14T00:20:12.621Z,0.00
2018-02-14T00:21:12.600Z,0.00
2018-02-14T00:22:12.583Z,0.00
2018-02-14T00:23:12.565Z,0.00
2018-02-14T00:24:12.542Z,0.00
2018-02-14T00:25:12.526Z,0.00
2018-02-14T00:26:12.507Z,0.00
2018-02-14T00:27:12.487Z,0.00
2018-02-14T00:28:12.498Z,0.00
2018-02-14T00:29:12.449Z,0.00
2018-02-14T00:30:12.423Z,0.00
2018-02-14T00:31:12.424Z,0.00
2018-02-14T00:32:12.385Z,0.00
2018-02-14T00:33:12.365Z,0.00
2018-02-14T00:34:12.348Z,0.00
2018-02-14T00:35:12.325Z,0.00
2018-02-14T00:36:12.304Z,0.00
2018-02-14T00:37:12.286Z,0.00
2018-02-14T00:38:12.267Z,0.00
2018-02-14T00:39:12.246Z,0.00
2018-02-14T00:40:12.226Z,0.00
2018-02-14T00:41:12.207Z,0.00
2018-02-14T00:42:12.187Z,0.00
2018-02-14T00:43:12.167Z,0.00
2018-02-14T00:44:12.146Z,0.00
2018-02-14T00:45:12.128Z,0.00
2018-02-14T00:46:12.108Z,0.00
2018-02-14T00:47:12.088Z,0.00
2018-02-14T00:48:12.068Z,0.00
2018-02-14T00:49:12.049Z,0.00
2018-02-14T00:50:12.029Z,0.00
2018-02-14T00:51:12.010Z,0.00
2018-02-14T00:52:11.988Z,0.00
2018-02-14T00:53:11.988Z,0.00
2018-02-14T00:54:11.970Z,0.00
2018-02-14T00:55:11.933Z,0.00
2018-02-14T00:56:11.944Z,0.00
2018-02-14T00:57:11.896Z,0.00
2018-02-14T00:58:11.872Z,0.00
2018-02-14T00:59:11.871Z,0.00
2018-02-14T01:00:11.832Z,0.00
2018-02-14T01:01:11.812Z,0.00
2018-02-14T01:02:11.808Z,0.00
2018-02-14T01:03:11.772Z,0.00
2018-02-14T01:04:11.752Z,0.00
2018-02-14T01:05:11.732Z,0.00
2018-02-14T01:06:11.712Z,0.00
2018-02-14T01:07:11.699Z,0.00
2018-02-14T01:08:11.702Z,0.00
2018-02-14T01:09:11.662Z,0.00
2018-02-14T01:10:11.633Z,0.00
2018-02-14T01:11:11.638Z,0.00
2018-02-14T01:12:11.594Z,0.00
2018-02-14T01:13:11.574Z,0.00
2018-02-14T01:14:11.564Z,0.00
2018-02-14T01:15:11.535Z,0.00
2018-02-14T01:16:11.523Z,0.00
2018-02-14T01:17:11.495Z,0.00
2018-02-14T01:18:11.475Z,0.00
2018-02-14T01:19:11.455Z,0.00
2018-02-14T01:20:11.435Z,0.00
2018-02-14T01:21:11.416Z,0.00
2018-02-14T01:22:11.397Z,0.00
2018-02-14T01:23:11.375Z,0.00
2018-02-14T01:24:11.356Z,0.00
2018-02-14T01:25:11.335Z,0.00
2018-02-14T01:26:11.316Z,0.00
2018-02-14T01:27:11.295Z,0.00
2018-02-14T01:28:11.276Z,0.00
2018-02-14T01:29:11.257Z,0.00
2018-02-14T01:30:11.236Z,0.00
2018-02-14T01:31:11.216Z,0.00
2018-02-14T01:32:11.197Z,0.00
2018-02-14T01:33:11.177Z,0.00
2018-02-14T01:34:11.157Z,0.00
2018-02-14T01:35:11.136Z,0.00
2018-02-14T01:36:11.128Z,0.00
2018-02-14T01:37:11.098Z,0.00
2018-02-14T01:38:11.096Z,0.00
2018-02-14T01:39:11.056Z,0.00
2018-02-14T01:40:11.258Z,0.00
2018-02-14T01:41:11.021Z,0.00
2018-02-14T01:42:10.997Z,0.00
2018-02-14T01:43:11.020Z,0.00
2018-02-14T01:44:10.958Z,0.00
2018-02-14T01:45:10.940Z,0.00
2018-02-14T01:46:10.949Z,0.00
2018-02-14T01:47:10.897Z,0.00
2018-02-14T01:48:10.878Z,0.00
2018-02-14T01:49:10.889Z,0.00
2018-02-14T01:50:10.865Z,0.00
2018-02-14T01:51:10.820Z,0.00
2018-02-14T01:52:10.859Z,0.00
2018-02-14T01:53:10.791Z,0.00
2018-02-14T01:54:10.776Z,0.00
2018-02-14T01:55:10.737Z,0.00
2018-02-14T01:56:10.718Z,0.00
2018-02-14T01:57:10.701Z,0.00
2018-02-14T01:58:10.680Z,0.00
2018-02-14T01:59:10.660Z,0.00
2018-02-14T02:00:10.639Z,0.00
2018-02-14T02:01:10.618Z,0.00
2018-02-14T02:02:10.599Z,0.00
2018-02-14T02:03:10.580Z,0.00
2018-02-14T02:04:10.559Z,0.00
2018-02-14T02:05:10.547Z,0.00
2018-02-14T02:06:10.521Z,0.00
2018-02-14T02:07:10.500Z,0.00
2018-02-14T02:08:10.479Z,0.00
2018-02-14T02:09:10.460Z,0.00
2018-02-14T02:10:10.438Z,0.00
2018-02-14T02:11:10.419Z,0.00
2018-02-14T02:12:10.398Z,0.00
2018-02-14T02:13:10.378Z,0.00
2018-02-14T02:14:10.359Z,0.00
2018-02-14T02:15:10.337Z,0.00
2018-02-14T02:16:10.318Z,0.00
2018-02-14T02:17:10.298Z,0.00
2018-02-14T02:18:10.308Z,0.00
2018-02-14T02:19:10.275Z,0.00
2018-02-14T02:20:10.243Z,0.00
2018-02-14T02:21:10.238Z,0.00
2018-02-14T02:22:10.199Z,0.00
2018-02-14T02:23:10.396Z,0.00
2018-02-14T02:24:10.162Z,0.00
2018-02-14T02:25:10.139Z,0.00
2018-02-14T02:26:10.161Z,0.00
2018-02-14T02:27:10.097Z,0.00
2018-02-14T02:28:10.077Z,0.00
2018-02-14T02:29:10.090Z,0.00
2018-02-14T02:30:10.038Z,0.00
2018-02-14T02:31:10.018Z,0.00
2018-02-14T02:32:10.020Z,0.00
2018-02-14T02:33:10.000Z,0.00
2018-02-14T02:34:09.960Z,0.00
2018-02-14T02:36:09.938Z,0.00
2018-02-14T02:37:09.897Z,0.00
2018-02-14T02:38:09.927Z,0.00
2018-02-14T02:39:09.857Z,0.00
2018-02-14T02:40:09.838Z,0.00
2018-02-14T02:41:09.854Z,0.00
2018-02-14T02:42:09.798Z,0.00
2018-02-14T02:43:09.776Z,0.00
2018-02-14T02:44:09.779Z,0.00
2018-02-14T02:45:09.735Z,0.00
2018-02-14T02:46:09.723Z,0.00
2018-02-14T02:47:09.708Z,0.00
2018-02-14T02:48:09.676Z,0.00
2018-02-14T02:49:09.655Z,0.00
2018-02-14T02:50:09.636Z,0.00
2018-02-14T02:51:09.619Z,0.00
2018-02-14T02:52:09.596Z,0.00
2018-02-14T02:53:09.575Z,0.00
2018-02-14T02:54:09.555Z,0.00
2018-02-14T02:55:09.534Z,0.00
2018-02-14T02:56:09.514Z,0.00
2018-02-14T02:57:09.495Z,0.00
2018-02-14T02:58:09.474Z,0.00
2018-02-14T02:59:09.452Z,0.00
2018-02-14T03:00:09.439Z,0.00
2018-02-14T03:01:09.428Z,0.00
2018-02-14T03:02:09.404Z,0.00
2018-02-14T03:03:09.374Z,0.00
2018-02-14T03:04:09.372Z,0.00
2018-02-14T03:05:09.332Z,0.00
2018-02-14T03:06:09.534Z,0.00
2018-02-14T03:07:09.299Z,0.00
2018-02-14T03:08:09.271Z,0.00
2018-02-14T03:09:09.298Z,0.00
2018-02-14T03:10:09.232Z,0.00
2018-02-14T03:11:09.210Z,0.00
2018-02-14T03:12:09.238Z,0.00
2018-02-14T03:13:09.170Z,0.00
2018-02-14T03:14:09.151Z,0.00
2018-02-14T03:15:09.154Z,0.00
2018-02-14T03:16:09.122Z,0.00
2018-02-14T03:17:09.125Z,0.00
2018-02-14T03:19:09.066Z,0.00
2018-02-14T03:20:09.028Z,0.00
2018-02-14T03:21:09.227Z,0.00
2018-02-14T03:22:08.991Z,0.00
2018-02-14T03:23:08.980Z,0.00
2018-02-14T03:24:08.990Z,0.00
2018-02-14T03:25:08.928Z,0.00
2018-02-14T03:26:08.908Z,0.00
2018-02-14T03:27:08.916Z,0.00
2018-02-14T03:28:08.867Z,0.00
2018-02-14T03:29:08.846Z,0.00
2018-02-14T03:30:08.843Z,0.00
2018-02-14T03:31:08.807Z,0.00
2018-02-14T03:32:08.785Z,0.00
2018-02-14T03:33:08.788Z,0.00
2018-02-14T03:34:08.746Z,0.00
2018-02-14T03:35:08.726Z,0.00
2018-02-14T03:36:08.705Z,0.00
2018-02-14T03:37:08.685Z,0.00
2018-02-14T03:38:08.665Z,0.00
2018-02-14T03:39:08.644Z,0.00
2018-02-14T03:40:08.623Z,0.00
2018-02-14T03:41:08.604Z,0.00
2018-02-14T03:42:08.583Z,0.00
2018-02-14T03:43:08.563Z,0.00
2018-02-14T03:44:08.542Z,0.00
2018-02-14T03:45:08.522Z,0.00
2018-02-14T03:46:08.506Z,0.00
2018-02-14T03:47:08.488Z,0.00
2018-02-14T03:48:08.500Z,0.00
2018-02-14T03:49:08.452Z,0.00
2018-02-14T03:50:08.420Z,0.00
2018-02-14T03:51:08.427Z,0.00
2018-02-14T03:52:08.379Z,0.00
2018-02-14T03:53:08.360Z,0.00
2018-02-14T03:54:08.350Z,0.00
2018-02-14T03:55:08.318Z,0.00
2018-02-14T03:56:08.304Z,0.00
2018-02-14T03:57:08.278Z,0.00
2018-02-14T03:58:08.258Z,0.00
2018-02-14T03:59:08.245Z,0.00
2018-02-14T04:00:08.216Z,0.00
2018-02-14T04:01:08.207Z,0.00
2018-02-14T04:02:08.193Z,0.00
2018-02-14T04:03:08.168Z,0.00
2018-02-14T04:04:08.149Z,0.00
2018-02-14T04:05:08.147Z,0.00
2018-02-14T04:06:08.094Z,0.00
2018-02-14T04:07:08.078Z,0.00
2018-02-14T04:08:08.067Z,0.00
2018-02-14T04:09:08.033Z,0.00
2018-02-14T04:10:08.013Z,0.00
2018-02-14T04:11:07.993Z,0.00
2018-02-14T04:12:07.972Z,0.00
2018-02-14T04:13:07.952Z,0.00
2018-02-14T04:14:07.933Z,0.00
2018-02-14T04:15:07.917Z,0.00
2018-02-14T04:16:07.890Z,0.00
2018-02-14T04:17:07.869Z,0.00
2018-02-14T04:18:07.850Z,0.00
2018-02-14T04:19:07.828Z,0.00
2018-02-14T04:20:07.808Z,0.00
2018-02-14T04:21:07.788Z,0.00
2018-02-14T04:22:07.768Z,0.00
2018-02-14T04:23:07.746Z,0.00
2018-02-14T04:24:07.729Z,0.00
2018-02-14T04:25:07.707Z,0.00
2018-02-14T04:26:07.686Z,0.00
2018-02-14T04:27:07.703Z,0.00
2018-02-14T04:28:07.644Z,0.00
2018-02-14T04:29:07.624Z,0.00
2018-02-14T04:30:07.612Z,0.00
2018-02-14T04:31:07.583Z,0.00
2018-02-14T04:32:07.562Z,0.00
2018-02-14T04:33:07.558Z,0.00
2018-02-14T04:34:07.522Z,0.00
2018-02-14T04:35:07.525Z,0.00
2018-02-14T04:36:07.485Z,0.00
2018-02-14T04:37:07.687Z,0.00
2018-02-14T04:38:07.451Z,0.00
2018-02-14T04:39:07.420Z,0.00
2018-02-14T04:40:07.614Z,0.00
2018-02-14T04:41:07.380Z,0.00
2018-02-14T04:42:07.358Z,0.00
2018-02-14T04:43:07.377Z,0.00
2018-02-14T04:44:07.316Z,0.00
2018-02-14T04:45:07.297Z,0.00
2018-02-14T04:46:07.317Z,0.00
2018-02-14T04:47:07.254Z,0.00
2018-02-14T04:48:07.234Z,0.00
2018-02-14T04:49:07.227Z,0.00
2018-02-14T04:50:07.219Z,0.00
2018-02-14T04:51:07.177Z,0.00
2018-02-14T04:52:07.214Z,0.00
2018-02-14T04:53:07.144Z,0.00
2018-02-14T04:54:07.111Z,0.00
2018-02-14T04:55:07.089Z,0.00
2018-02-14T04:56:07.070Z,0.00
2018-02-14T04:57:07.058Z,0.00
2018-02-14T04:58:07.028Z,0.00
2018-02-14T04:59:07.009Z,0.00
2018-02-14T05:00:06.987Z,0.00
2018-02-14T05:01:06.967Z,0.00
2018-02-14T05:02:06.957Z,0.00
2018-02-14T05:03:06.924Z,0.00
2018-02-14T05:04:06.904Z,0.00
2018-02-14T05:05:06.883Z,0.00
2018-02-14T05:06:06.862Z,0.00
2018-02-14T05:07:06.842Z,0.00
2018-02-14T05:08:06.821Z,0.00
2018-02-14T05:09:06.801Z,0.00
2018-02-14T05:10:06.781Z,0.00
2018-02-14T05:11:06.758Z,0.00
2018-02-14T05:12:06.738Z,0.00
2018-02-14T05:13:06.718Z,0.00
2018-02-14T05:14:06.696Z,0.00
2018-02-14T05:15:06.675Z,0.00
2018-02-14T05:16:06.654Z,0.00
2018-02-14T05:17:06.634Z,0.00
2018-02-14T05:18:06.715Z,0.00
2018-02-14T05:19:06.591Z,0.00
2018-02-14T05:20:06.571Z,0.00
2018-02-14T05:21:06.549Z,0.00
2018-02-14T05:22:06.530Z,0.00
2018-02-14T05:23:06.508Z,0.00
2018-02-14T05:24:06.515Z,0.00
2018-02-14T05:25:06.475Z,0.00
2018-02-14T05:26:06.445Z,0.00
2018-02-14T05:27:06.450Z,0.00
2018-02-14T05:28:06.403Z,0.00
2018-02-14T05:29:06.605Z,0.00
2018-02-14T05:30:06.398Z,0.00
2018-02-14T05:31:06.344Z,0.00
2018-02-14T05:32:06.369Z,0.00
2018-02-14T05:33:06.299Z,0.00
2018-02-14T05:34:06.278Z,0.00
2018-02-14T05:35:06.256Z,0.00
2018-02-14T05:36:06.251Z,0.00
2018-02-14T05:37:06.266Z,0.00
2018-02-14T05:38:06.236Z,0.00
2018-02-14T05:39:06.176Z,0.00
2018-02-14T05:40:06.193Z,0.00
2018-02-14T05:41:06.155Z,0.00
2018-02-14T05:42:06.112Z,0.00
2018-02-14T05:43:06.121Z,0.00
2018-02-14T05:44:06.074Z,0.00
2018-02-14T05:45:06.048Z,0.00
2018-02-14T05:46:06.049Z,0.00
2018-02-14T05:47:06.007Z,0.00
2018-02-14T05:48:05.985Z,0.00
2018-02-14T05:49:05.971Z,0.00
2018-02-14T05:50:05.943Z,0.00
2018-02-14T05:51:05.943Z,0.00
2018-02-14T05:53:05.931Z,0.00
2018-02-14T05:54:05.877Z,0.00
2018-02-14T05:55:06.075Z,0.00
2018-02-14T05:56:05.850Z,0.00
2018-02-14T05:57:05.796Z,0.00
2018-02-14T05:58:05.829Z,0.00
2018-02-14T05:59:05.768Z,0.00
2018-02-14T06:00:05.733Z,0.00
2018-02-14T06:01:05.738Z,0.00
2018-02-14T06:02:05.694Z,0.00
2018-02-14T06:03:05.671Z,0.00
2018-02-14T06:04:05.667Z,0.00
2018-02-14T06:05:05.629Z,0.00
2018-02-14T06:06:05.608Z,0.00
2018-02-14T06:07:05.596Z,0.00
2018-02-14T06:08:05.567Z,0.00
2018-02-14T06:09:05.546Z,0.00
2018-02-14T06:10:05.525Z,0.00
2018-02-14T06:11:05.503Z,0.00
2018-02-14T06:12:05.484Z,0.00
2018-02-14T06:13:05.461Z,0.00
2018-02-14T06:14:05.441Z,0.00
2018-02-14T06:15:05.419Z,0.00
2018-02-14T06:16:05.398Z,0.00
2018-02-14T06:17:05.380Z,0.00
2018-02-14T06:18:05.358Z,0.00
2018-02-14T06:19:05.336Z,0.00
2018-02-14T06:20:05.320Z,0.00
2018-02-14T06:21:05.294Z,0.00
2018-02-14T06:22:05.273Z,0.00
2018-02-14T06:23:05.252Z,0.00
2018-02-14T06:24:05.247Z,0.00
2018-02-14T06:25:05.210Z,0.00
2018-02-14T06:26:05.189Z,0.00
2018-02-14T06:27:05.168Z,0.00
2018-02-14T06:28:05.174Z,0.00
2018-02-14T06:29:05.186Z,0.00
2018-02-14T06:30:05.148Z,0.00
2018-02-14T06:31:05.083Z,0.00
2018-02-14T06:32:05.113Z,0.00
2018-02-14T06:33:05.058Z,0.00
2018-02-14T06:34:05.022Z,0.00
2018-02-14T06:35:05.229Z,0.00
2018-02-14T06:36:04.989Z,0.00
2018-02-14T06:37:04.964Z,0.00
2018-02-14T06:38:04.998Z,0.00
2018-02-14T06:39:04.915Z,0.00
2018-02-14T06:41:04.876Z,5.63
2018-02-14T06:42:04.855Z,5.63
2018-02-14T06:43:04.833Z,5.63
2018-02-14T06:44:04.858Z,5.63
2018-02-14T06:45:04.801Z,5.63
2018-02-14T06:46:04.993Z,5.63
2018-02-14T06:47:04.758Z,11.25
2018-02-14T06:48:04.729Z,11.25
2018-02-14T06:49:04.710Z,11.25
2018-02-14T06:50:04.689Z,11.25
2018-02-14T06:51:04.669Z,11.25
2018-02-14T06:52:04.652Z,16.88
2018-02-14T06:53:04.627Z,16.88
2018-02-14T06:54:04.606Z,16.88
2018-02-14T06:55:04.584Z,16.88
2018-02-14T06:56:04.570Z,22.50
2018-02-14T06:57:04.569Z,22.50
2018-02-14T06:58:04.525Z,22.50
2018-02-14T06:59:04.501Z,28.13
2018-02-14T07:00:04.527Z,28.13
2018-02-14T07:01:04.461Z,28.13
2018-02-14T07:02:04.440Z,33.75
2018-02-14T07:03:04.486Z,33.75
2018-02-14T07:04:04.399Z,33.75
2018-02-14T07:05:04.378Z,33.75
2018-02-14T07:06:04.358Z,39.38
2018-02-14T07:07:04.336Z,39.38
2018-02-14T07:08:04.317Z,39.38
2018-02-14T07:09:04.294Z,45.00
2018-02-14T07:10:04.273Z,45.00
2018-02-14T07:11:04.303Z,50.63
2018-02-14T07:12:04.250Z,50.63
2018-02-14T07:13:04.209Z,50.63
2018-02-14T07:14:04.190Z,56.25
2018-02-14T07:15:04.167Z,56.25
2018-02-14T07:16:04.147Z,56.25
2018-02-14T07:18:04.117Z,61.88
2018-02-14T07:19:04.085Z,67.50
2018-02-14T07:20:04.269Z,67.50
2018-02-14T07:21:04.044Z,67.50
2018-02-14T07:22:04.023Z,73.13
2018-02-14T07:23:04.104Z,73.13
2018-02-14T07:24:03.981Z,78.75
2018-02-14T07:25:03.962Z,78.75
2018-02-14T07:26:03.978Z,84.38
2018-02-14T07:27:03.919Z,84.38
2018-02-14T07:28:03.899Z,90.00
2018-02-14T07:29:03.925Z,90.00
2018-02-14T07:30:03.860Z,95.63
2018-02-14T07:31:03.836Z,95.63
2018-02-14T07:32:03.860Z,101.25
2018-02-14T07:33:03.797Z,101.25
2018-02-14T07:34:03.778Z,101.25
2018-02-14T07:35:03.784Z,101.25
2018-02-14T07:36:03.738Z,106.88
2018-02-14T07:37:03.716Z,106.88
2018-02-14T07:38:03.703Z,112.50
2018-02-14T07:39:03.693Z,112.50
2018-02-14T07:40:03.656Z,118.13
2018-02-14T07:41:03.636Z,118.13
2018-02-14T07:42:03.616Z,123.75
2018-02-14T07:43:03.596Z,123.75
2018-02-14T07:44:03.576Z,129.38
2018-02-14T07:45:03.556Z,135.00
2018-02-14T07:46:03.557Z,135.00
2018-02-14T07:47:03.516Z,140.63
2018-02-14T07:48:03.498Z,140.63
2018-02-14T07:49:03.586Z,146.25
2018-02-14T07:50:03.459Z,151.88
2018-02-14T07:51:03.439Z,151.88
2018-02-14T07:52:03.664Z,151.88
2018-02-14T07:53:03.401Z,163.13
2018-02-14T07:54:03.388Z,174.38
2018-02-14T07:55:03.361Z,185.63
2018-02-14T07:56:03.345Z,196.88
2018-02-14T07:57:03.325Z,202.50
2018-02-14T07:58:03.308Z,202.50
2018-02-14T07:59:03.291Z,213.75
2018-02-14T08:00:03.476Z,208.13
2018-02-14T08:01:03.256Z,202.50
2018-02-14T08:02:03.238Z,219.38
2018-02-14T08:04:03.213Z,247.50
2018-02-14T08:05:03.201Z,247.50
2018-02-14T08:06:03.234Z,253.13
2018-02-14T08:07:03.158Z,253.13
2018-02-14T08:08:03.143Z,253.13
2018-02-14T08:09:03.173Z,258.75
2018-02-14T08:10:03.126Z,258.75
2018-02-14T08:11:03.103Z,258.75
2018-02-14T08:12:03.105Z,270.00
2018-02-14T08:13:03.079Z,270.00
2018-02-14T08:14:03.065Z,275.63
2018-02-14T08:15:03.050Z,281.25
2018-02-14T08:16:03.038Z,270.00
2018-02-14T08:17:03.034Z,275.63
2018-02-14T08:18:03.016Z,286.88
2018-02-14T08:19:03.001Z,292.50
2018-02-14T08:20:03.083Z,292.50
2018-02-14T08:21:02.976Z,286.88
2018-02-14T08:22:02.966Z,286.88
2018-02-14T08:23:03.027Z,281.25
2018-02-14T08:24:02.944Z,286.88
2018-02-14T08:25:02.932Z,303.75
2018-02-14T08:26:02.959Z,315.00
2018-02-14T08:27:02.908Z,315.00
2018-02-14T08:28:02.896Z,309.38
2018-02-14T08:29:02.891Z,303.75
2018-02-14T08:30:02.875Z,309.38
2018-02-14T08:31:02.863Z,309.38
2018-02-14T08:32:02.853Z,326.25
2018-02-14T08:33:02.843Z,343.13
2018-02-14T08:34:02.834Z,343.13
2018-02-14T08:35:02.825Z,326.25
2018-02-14T08:36:02.815Z,331.88
2018-02-14T08:37:02.897Z,337.50
2018-02-14T08:38:02.792Z,348.75
2018-02-14T08:39:02.779Z,506.25
2018-02-14T08:40:02.868Z,669.38
2018-02-14T08:41:02.761Z,663.75
2018-02-14T08:42:02.749Z,776.25
2018-02-14T08:43:02.786Z,905.63
2018-02-14T08:44:02.727Z,973.13
2018-02-14T08:45:02.718Z,916.88
2018-02-14T08:46:02.720Z,686.25
2018-02-14T08:47:02.696Z,427.50
2018-02-14T08:48:02.686Z,455.63
2018-02-14T08:49:02.678Z,416.25
2018-02-14T08:50:02.666Z,331.88
2018-02-14T08:51:02.655Z,286.88
2018-02-14T08:52:02.643Z,264.38
2018-02-14T08:53:02.631Z,258.75
2018-02-14T08:54:02.868Z,258.75
2018-02-14T08:55:02.607Z,264.38
2018-02-14T08:56:02.692Z,270.00
2018-02-14T08:57:02.583Z,371.25
2018-02-14T08:58:02.572Z,624.38
2018-02-14T08:59:02.761Z,911.25
2018-02-14T09:00:02.546Z,826.88
2018-02-14T09:01:02.534Z,568.13
2018-02-14T09:02:02.569Z,489.38
2018-02-14T09:03:02.510Z,630.00
2018-02-14T09:04:02.497Z,815.63
2018-02-14T09:05:02.486Z,1035.00
2018-02-14T09:06:02.477Z,1153.13
2018-02-14T09:07:02.462Z,1198.13
2018-02-14T09:08:02.454Z,1220.63
2018-02-14T09:09:02.448Z,1215.00
2018-02-14T09:10:02.436Z,1215.00
2018-02-14T09:11:02.469Z,1248.75
2018-02-14T09:12:02.412Z,1243.13
2018-02-14T09:13:02.492Z,1237.50
2018-02-14T09:14:02.394Z,1226.25
2018-02-14T09:15:02.384Z,1231.88
2018-02-14T09:16:02.424Z,1220.63
2018-02-14T09:17:02.370Z,1186.88
2018-02-14T09:18:02.362Z,1248.75
2018-02-14T09:19:02.360Z,1271.25
2018-02-14T09:20:02.348Z,1260.00
2018-02-14T09:21:02.349Z,1237.50
2018-02-14T09:22:02.334Z,1260.00
2018-02-14T09:23:02.330Z,1254.38
2018-02-14T09:24:02.322Z,1231.88
2018-02-14T09:25:02.319Z,1136.25
2018-02-14T09:26:02.314Z,1091.25
2018-02-14T09:27:02.354Z,1209.38
2018-02-14T09:28:02.299Z,1260.00
2018-02-14T09:29:02.294Z,1209.38
2018-02-14T09:30:02.316Z,1215.00
2018-02-14T09:31:02.283Z,1333.13
2018-02-14T09:32:02.288Z,1361.25
2018-02-14T09:33:02.273Z,1344.38
2018-02-14T09:34:02.269Z,1299.38
2018-02-14T09:35:02.264Z,1333.13
2018-02-14T09:36:02.260Z,1378.13
2018-02-14T09:37:02.256Z,1383.75
2018-02-14T09:38:02.456Z,1338.75
2018-02-14T09:39:02.248Z,1361.25
2018-02-14T09:40:02.246Z,1406.25
2018-02-14T09:41:02.448Z,1389.38
2018-02-14T09:42:02.241Z,1372.50
2018-02-14T09:43:02.235Z,1411.88
2018-02-14T09:44:02.232Z,1462.50
2018-02-14T09:45:02.232Z,1507.50
2018-02-14T09:46:02.230Z,1440.00
2018-02-14T09:47:02.226Z,1462.50
2018-02-14T09:48:02.223Z,1496.25
2018-02-14T09:49:02.305Z,1473.75
2018-02-14T09:50:02.221Z,1462.50
2018-02-14T09:51:02.218Z,1479.38
2018-02-14T09:52:02.253Z,1462.50
2018-02-14T09:53:02.216Z,1479.38
2018-02-14T09:54:02.213Z,1423.13
2018-02-14T09:55:02.211Z,1395.00
2018-02-14T09:56:02.415Z,1451.25
2018-02-14T09:57:02.211Z,1496.25
2018-02-14T09:58:02.208Z,1524.38
2018-02-14T09:59:02.223Z,1513.13
2018-02-14T10:00:02.218Z,1546.88
2018-02-14T10:01:02.207Z,1530.00
2018-02-14T10:02:02.204Z,1485.00
2018-02-14T10:03:02.203Z,1485.00
2018-02-14T10:04:02.287Z,1518.75
2018-02-14T10:05:02.202Z,1507.50
2018-02-14T10:06:02.201Z,1473.75
2018-02-14T10:07:02.232Z,1473.75
2018-02-14T10:08:02.205Z,1541.25
2018-02-14T10:09:02.198Z,1558.13
2018-02-14T10:10:02.198Z,1524.38
2018-02-14T10:11:02.197Z,1513.13
2018-02-14T10:12:02.204Z,1479.38
2018-02-14T10:13:02.198Z,1518.75
2018-02-14T10:14:02.202Z,1518.75
2018-02-14T10:16:02.223Z,1490.63
2018-02-14T10:17:02.197Z,1485.00
2018-02-14T10:18:02.258Z,1513.13
2018-02-14T10:19:02.197Z,1597.50
2018-02-14T10:20:02.198Z,1591.88
2018-02-14T10:21:02.217Z,1552.50
2018-02-14T10:22:02.200Z,1575.00
2018-02-14T10:23:02.202Z,1614.38
2018-02-14T10:24:02.201Z,1496.25
2018-02-14T10:25:02.200Z,1591.88
2018-02-14T10:26:02.266Z,1530.00
2018-02-14T10:27:02.199Z,1586.25
2018-02-14T10:28:02.202Z,1642.50
2018-02-14T10:29:02.238Z,1614.38
2018-02-14T10:30:02.199Z,1620.00
2018-02-14T10:31:02.201Z,1530.00
2018-02-14T10:32:02.203Z,1507.50
2018-02-14T10:33:02.202Z,1625.63
2018-02-14T10:34:02.199Z,1642.50
2018-02-14T10:35:02.234Z,1653.75
2018-02-14T10:36:02.199Z,1670.63
2018-02-14T10:38:02.224Z,1710.00
2018-02-14T10:39:02.200Z,1665.00
2018-02-14T10:40:02.225Z,1681.88
2018-02-14T10:41:02.196Z,1710.00
2018-02-14T10:42:02.204Z,1726.88
2018-02-14T10:43:02.198Z,1653.75
2018-02-14T10:44:02.194Z,1676.25
2018-02-14T10:45:02.269Z,1738.13
2018-02-14T10:46:02.209Z,1743.75
2018-02-14T10:47:02.193Z,1732.50
2018-02-14T10:48:02.245Z,1749.38
2018-02-14T10:49:02.193Z,1721.25
2018-02-14T10:50:02.193Z,1710.00
2018-02-14T10:51:02.215Z,1732.50
2018-02-14T10:52:02.197Z,1693.13
2018-02-14T10:53:02.191Z,1710.00
2018-02-14T10:54:02.192Z,1721.25
2018-02-14T10:55:02.190Z,1620.00
2018-02-14T10:56:02.191Z,1591.88
2018-02-14T10:57:02.192Z,1591.88
2018-02-14T10:58:02.188Z,1636.88
2018-02-14T10:59:02.187Z,1693.13
2018-02-14T11:00:02.188Z,1659.38
2018-02-14T11:01:02.264Z,1608.75
2018-02-14T11:02:02.191Z,1575.00
2018-02-14T11:03:02.184Z,1597.50
2018-02-14T11:04:02.386Z,1625.63
2018-02-14T11:05:02.181Z,1665.00
2018-02-14T11:06:02.181Z,1693.13
2018-02-14T11:07:02.192Z,1726.88
2018-02-14T11:08:02.176Z,1738.13
2018-02-14T11:09:02.179Z,1693.13
2018-02-14T11:10:02.183Z,1681.88
2018-02-14T11:12:16.496Z,1653.75
2018-02-14T11:13:16.292Z,1676.25
2018-02-14T11:14:16.286Z,1681.88
2018-02-14T11:15:16.489Z,1681.88
2018-02-14T11:16:16.284Z,1659.38
2018-02-14T11:17:16.297Z,1670.63
2018-02-14T11:18:16.290Z,1687.50
2018-02-14T11:19:16.278Z,1710.00
2018-02-14T11:20:16.277Z,1687.50
2018-02-14T11:21:16.275Z,1653.75
2018-02-14T11:22:16.272Z,1659.38
2018-02-14T11:23:16.363Z,1653.75
2018-02-14T11:24:16.271Z,1704.38
2018-02-14T11:25:16.270Z,1687.50
2018-02-14T11:26:16.466Z,1653.75
2018-02-14T11:27:16.264Z,1659.38
2018-02-14T11:28:16.260Z,1620.00
2018-02-14T11:29:16.257Z,1603.13
2018-02-14T11:30:16.255Z,1653.75
2018-02-14T11:31:16.315Z,1653.75
2018-02-14T11:32:16.248Z,1614.38
2018-02-14T11:33:16.245Z,1603.13
2018-02-14T11:34:16.445Z,1648.13
2018-02-14T11:35:16.243Z,1636.88
2018-02-14T11:36:16.240Z,1614.38
2018-02-14T11:37:16.437Z,1625.63
2018-02-14T11:38:16.230Z,1614.38
2018-02-14T11:39:16.231Z,1614.38
2018-02-14T11:40:16.235Z,1603.13
2018-02-14T11:41:16.221Z,1608.75
2018-02-14T11:42:16.217Z,1648.13
2018-02-14T11:43:16.215Z,1648.13
2018-02-14T11:44:16.214Z,1642.50
2018-02-14T11:45:16.415Z,1670.63
2018-02-14T11:46:16.203Z,1687.50
2018-02-14T11:47:16.198Z,1698.75
2018-02-14T11:48:16.280Z,1636.88
2018-02-14T11:49:16.190Z,1608.75
2018-02-14T11:50:16.186Z,1575.00
2018-02-14T11:51:16.183Z,1608.75
2018-02-14T11:52:16.184Z,1603.13
2018-02-14T11:53:16.175Z,1614.38
2018-02-14T11:54:16.198Z,1603.13
2018-02-14T11:55:16.220Z,1614.38
2018-02-14T11:56:16.164Z,1603.13
2018-02-14T11:57:16.162Z,1575.00
2018-02-14T11:58:16.168Z,1591.88
2018-02-14T11:59:16.153Z,1575.00
2018-02-14T12:00:16.150Z,1552.50
2018-02-14T12:01:16.147Z,1541.25
2018-02-14T12:02:16.142Z,1558.13
2018-02-14T12:03:16.235Z,1558.13
2018-02-14T12:04:16.136Z,1552.50
2018-02-14T12:05:16.133Z,1518.75
2018-02-14T12:06:16.345Z,1265.63
2018-02-14T12:07:16.126Z,860.63
2018-02-14T12:08:16.127Z,573.75
2018-02-14T12:09:16.145Z,495.00
2018-02-14T12:10:16.115Z,495.00
2018-02-14T12:11:16.112Z,483.75
2018-02-14T12:12:16.108Z,478.13
2018-02-14T12:13:16.107Z,472.50
2018-02-14T12:14:16.101Z,466.88
2018-02-14T12:15:16.096Z,461.25
2018-02-14T12:16:16.092Z,455.63
2018-02-14T12:17:16.181Z,450.00
2018-02-14T12:18:16.084Z,444.38
2018-02-14T12:19:16.080Z,438.75
2018-02-14T12:20:16.100Z,433.13
2018-02-14T12:21:16.074Z,427.50
2018-02-14T12:22:16.068Z,427.50
2018-02-14T12:23:16.067Z,427.50
2018-02-14T12:24:16.060Z,433.13
2018-02-14T12:25:16.056Z,478.13
2018-02-14T12:26:16.051Z,765.00
2018-02-14T12:27:16.047Z,1074.38
2018-02-14T12:28:16.246Z,849.38
2018-02-14T12:29:16.038Z,472.50
2018-02-14T12:30:16.033Z,438.75
2018-02-14T12:31:16.076Z,438.75
2018-02-14T12:32:16.025Z,450.00
2018-02-14T12:33:16.025Z,495.00
2018-02-14T12:34:16.015Z,478.13
2018-02-14T12:35:16.012Z,444.38
2018-02-14T12:36:16.007Z,438.75
2018-02-14T12:37:16.005Z,444.38
2018-02-14T12:38:15.997Z,455.63
2018-02-14T12:39:16.079Z,489.38
2018-02-14T12:40:15.991Z,736.88
2018-02-14T12:41:15.983Z,1080.00
2018-02-14T12:42:16.029Z,1310.63
2018-02-14T12:43:15.974Z,1333.13
2018-02-14T12:44:15.969Z,1321.88
2018-02-14T12:45:15.994Z,1310.63
2018-02-14T12:46:15.959Z,1310.63
2018-02-14T12:47:15.954Z,1316.25
2018-02-14T12:48:15.949Z,1321.88
2018-02-14T12:49:15.946Z,1305.00
2018-02-14T12:50:16.143Z,1305.00
2018-02-14T12:51:15.935Z,1316.25
2018-02-14T12:52:15.931Z,1344.38
2018-02-14T12:53:16.130Z,1316.25
2018-02-14T12:54:15.920Z,1310.63
2018-02-14T12:55:15.916Z,1305.00
2018-02-14T12:56:15.913Z,1288.13
2018-02-14T12:57:15.906Z,1288.13